createdAt,value
2022-11-14T06:56:54.909Z,21.57
2022-11-14T09:00:41.253Z,21.59
2022-11-14T09:01:22.573Z,21.60
2022-11-14T09:02:10.578Z,21.59
2022-11-14T09:02:58.970Z,21.59
2022-11-14T09:07:33.716Z,21.57
2022-11-14T09:09:30.916Z,21.58
2022-11-14T09:10:17.063Z,21.55
2022-11-14T09:11:05.557Z,21.58
2022-11-14T09:11:51.661Z,21.58
2022-11-14T09:12:38.047Z,21.59
2022-11-14T09:14:37.821Z,21.58
2022-11-14T09:15:26.670Z,21.61
2022-11-14T09:16:10.263Z,21.60
2022-11-14T09:17:05.573Z,21.58
2022-11-14T09:17:56.140Z,21.62
2022-11-14T09:18:43.855Z,21.61
2022-11-14T09:19:35.879Z,21.62
2022-11-14T09:20:21.463Z,21.60
2022-11-14T09:21:16.980Z,21.60
2022-11-14T09:26:05.568Z,21.59
2022-11-14T09:28:11.679Z,21.60
2022-11-14T09:29:03.318Z,21.63
2022-11-14T09:29:50.131Z,21.61
2022-11-14T09:31:55.703Z,21.62
2022-11-14T09:32:44.772Z,21.62
2022-11-14T09:34:40.288Z,21.60
2022-11-14T09:35:40.183Z,21.59
2022-11-14T09:36:40.337Z,21.60
2022-11-14T09:37:31.427Z,21.64
2022-11-14T09:38:22.635Z,21.58
2022-11-14T09:39:16.182Z,21.63
2022-11-14T09:40:02.566Z,21.62
2022-11-14T09:41:07.480Z,21.61
2022-11-14T09:42:00.786Z,21.63
2022-11-14T09:43:02.829Z,21.63
2022-11-14T09:44:08.496Z,21.65
2022-11-14T09:45:07.353Z,21.62
2022-11-14T09:45:56.495Z,21.60
2022-11-14T09:46:46.171Z,21.64
2022-11-14T09:47:30.674Z,21.64
2022-11-14T09:48:27.344Z,21.62
2022-11-14T09:49:15.842Z,21.63
2022-11-14T09:50:12.407Z,21.64
2022-11-14T09:51:02.961Z,21.66
2022-11-14T09:51:57.319Z,21.64
2022-11-14T09:52:53.598Z,21.64
2022-11-14T09:54:05.802Z,21.63
2022-11-14T09:56:16.334Z,21.63
2022-11-14T09:57:05.351Z,21.63
2022-11-14T09:57:58.461Z,21.61
2022-11-14T09:58:46.284Z,21.63
2022-11-14T09:59:40.425Z,21.66
2022-11-14T10:00:37.401Z,21.60
2022-11-14T10:01:29.260Z,21.63
2022-11-14T10:04:31.707Z,21.69
2022-11-14T10:05:37.640Z,21.68
2022-11-14T10:06:26.945Z,21.67
2022-11-14T10:07:27.169Z,21.65
2022-11-14T10:08:18.080Z,21.65
2022-11-14T10:09:01.728Z,21.63
2022-11-14T10:09:50.851Z,21.63
2022-11-14T10:10:47.765Z,21.64
2022-11-14T10:11:44.329Z,21.63
2022-11-14T10:12:48.849Z,21.52
2022-11-14T10:13:39.731Z,21.63
2022-11-14T10:14:31.227Z,21.66
2022-11-14T10:15:14.174Z,21.71
2022-11-14T10:16:04.948Z,21.75
2022-11-14T10:16:55.540Z,21.80
2022-11-14T10:17:39.889Z,21.85
2022-11-14T10:18:43.333Z,21.85
2022-11-14T10:19:38.687Z,21.84
2022-11-14T10:20:39.888Z,21.86
2022-11-14T10:21:26.643Z,21.85
2022-11-14T10:22:21.125Z,21.85
2022-11-14T10:23:02.145Z,21.85
2022-11-14T10:23:42.919Z,21.84
2022-11-14T10:24:46.125Z,21.86
2022-11-14T10:25:44.850Z,21.85
2022-11-14T10:26:42.543Z,21.86
2022-11-14T10:27:34.800Z,21.85
2022-11-14T10:28:22.778Z,21.85
2022-11-14T10:29:17.230Z,21.85
2022-11-14T10:30:09.485Z,21.86
2022-11-14T10:31:04.625Z,21.87
2022-11-14T10:32:03.684Z,21.86
2022-11-14T10:33:10.736Z,21.86
2022-11-14T10:34:14.247Z,21.86
2022-11-14T10:35:06.018Z,21.87
2022-11-14T10:36:04.491Z,21.88
2022-11-14T10:37:10.399Z,21.87
2022-11-14T10:37:58.790Z,21.86
2022-11-14T10:38:54.502Z,21.85
2022-11-14T10:39:41.990Z,21.86
2022-11-14T10:40:38.488Z,21.87
2022-11-14T10:41:55.537Z,21.86
2022-11-14T10:42:48.672Z,21.85
2022-11-14T10:43:33.578Z,21.86
2022-11-14T10:44:24.174Z,21.86
2022-11-14T10:45:18.117Z,21.86
2022-11-14T10:46:22.078Z,21.85
2022-11-14T10:47:11.037Z,21.86
2022-11-14T10:48:05.058Z,21.87
2022-11-14T10:49:00.841Z,21.87
2022-11-14T10:49:49.337Z,21.87
2022-11-14T10:50:38.301Z,21.87
2022-11-14T10:51:36.470Z,21.84
2022-11-14T10:52:26.656Z,21.86
2022-11-14T10:53:18.354Z,21.85
2022-11-14T10:54:22.689Z,21.85
2022-11-14T10:55:15.998Z,21.85
2022-11-14T10:56:05.615Z,21.87
2022-11-14T10:57:04.291Z,21.84
2022-11-14T10:57:53.687Z,21.86
2022-11-14T10:58:48.795Z,21.87
2022-11-14T10:59:40.022Z,21.86
2022-11-14T11:00:32.739Z,21.86
2022-11-14T11:01:34.485Z,21.88
2022-11-14T11:02:26.899Z,21.90
2022-11-14T11:03:15.991Z,21.90
2022-11-14T11:04:05.157Z,21.89
2022-11-14T11:04:55.514Z,21.88
2022-11-14T11:05:45.458Z,21.87
2022-11-14T11:06:37.792Z,21.89
2022-11-14T11:07:24.400Z,21.88
2022-11-14T11:08:42.157Z,21.88
2022-11-14T11:09:22.191Z,21.89
2022-11-14T11:10:15.564Z,21.89
2022-11-14T11:11:06.128Z,21.88
2022-11-14T11:11:57.318Z,21.86
2022-11-14T11:12:41.666Z,21.85
2022-11-14T11:13:40.178Z,21.87
2022-11-14T11:14:31.310Z,21.87
2022-11-14T11:15:39.667Z,21.87
2022-11-14T11:16:31.914Z,21.87
2022-11-14T11:17:16.265Z,21.88
2022-11-14T11:18:09.781Z,21.88
2022-11-14T11:18:59.753Z,21.89
2022-11-14T11:19:51.015Z,21.88
2022-11-14T11:20:44.424Z,21.88
2022-11-14T11:21:32.165Z,21.89
2022-11-14T11:22:34.052Z,21.88
2022-11-14T11:23:31.748Z,21.88
2022-11-14T11:24:24.574Z,21.88
2022-11-14T11:25:16.105Z,21.90
2022-11-14T11:26:17.222Z,21.91
2022-11-14T11:27:20.611Z,21.90
2022-11-14T11:28:26.479Z,21.88
2022-11-14T11:29:24.226Z,21.88
2022-11-14T11:30:13.050Z,21.87
2022-11-14T11:31:14.974Z,21.88
2022-11-14T11:32:10.674Z,21.90
2022-11-14T11:32:59.564Z,21.91
2022-11-14T11:33:49.927Z,21.89
2022-11-14T11:34:43.963Z,21.90
2022-11-14T11:35:34.937Z,21.90
2022-11-14T11:36:32.777Z,21.91
2022-11-14T11:38:21.279Z,21.89
2022-11-14T11:39:14.742Z,21.89
2022-11-14T11:40:09.526Z,21.89
2022-11-14T11:40:59.849Z,21.91
2022-11-14T11:42:08.813Z,21.90
2022-11-14T11:44:11.140Z,21.91
2022-11-14T11:45:00.819Z,21.90
2022-11-14T11:45:54.066Z,21.92
2022-11-14T11:46:50.320Z,21.91
2022-11-14T11:47:42.467Z,21.90
2022-11-14T11:48:31.767Z,21.90
2022-11-14T11:49:25.137Z,21.91
2022-11-14T11:50:16.400Z,21.90
2022-11-14T11:51:09.119Z,21.90
2022-11-14T11:52:08.652Z,21.88
2022-11-14T11:52:52.000Z,21.90
2022-11-14T11:53:37.521Z,21.90
2022-11-14T11:54:27.712Z,21.91
2022-11-14T11:55:37.184Z,21.90
2022-11-14T11:56:28.204Z,21.91
2022-11-14T11:57:26.524Z,21.93
2022-11-14T11:58:22.686Z,21.93
2022-11-14T11:59:24.749Z,21.92
2022-11-14T12:00:21.543Z,21.94
2022-11-14T12:01:10.919Z,21.93
2022-11-14T12:01:59.664Z,21.93
2022-11-14T12:02:58.266Z,21.91
2022-11-14T12:03:49.672Z,21.92
2022-11-14T12:04:41.764Z,21.92
2022-11-14T12:05:35.999Z,21.93
2022-11-14T12:06:27.205Z,21.93
2022-11-14T12:07:21.531Z,21.91
2022-11-14T12:08:23.332Z,21.89
2022-11-14T12:09:05.314Z,21.90
2022-11-14T12:10:10.227Z,21.91
2022-11-14T12:11:02.958Z,21.92
2022-11-14T12:11:53.502Z,21.93
2022-11-14T12:12:55.014Z,21.93
2022-11-14T12:13:50.507Z,21.92
2022-11-14T12:14:32.480Z,21.94
2022-11-14T12:15:36.645Z,21.94
2022-11-14T12:16:19.838Z,21.94
2022-11-14T12:17:23.739Z,21.94
2022-11-14T12:18:17.519Z,21.95
2022-11-14T12:19:14.482Z,21.95
2022-11-14T12:20:07.653Z,21.94
2022-11-14T12:20:58.469Z,21.93
2022-11-14T12:21:48.295Z,21.92
2022-11-14T12:22:29.466Z,21.92
2022-11-14T12:23:12.521Z,21.94
2022-11-14T12:24:13.069Z,21.96
2022-11-14T12:25:08.125Z,21.94
2022-11-14T12:26:11.993Z,21.94
2022-11-14T12:27:21.518Z,21.95
2022-11-14T12:28:15.302Z,21.95
2022-11-14T12:29:11.872Z,21.96
2022-11-14T12:29:55.844Z,21.95
2022-11-14T12:30:48.981Z,21.94
2022-11-14T12:31:44.026Z,21.94
2022-11-14T12:32:34.273Z,21.95
2022-11-14T12:33:28.656Z,21.94
2022-11-14T12:34:27.929Z,21.93
2022-11-14T12:35:18.392Z,21.92
2022-11-14T12:36:12.966Z,21.91
2022-11-14T12:37:04.364Z,21.92
2022-11-14T12:37:56.014Z,21.92
2022-11-14T12:38:47.464Z,21.93
2022-11-14T12:39:44.723Z,21.94
2022-11-14T12:40:42.580Z,21.95
2022-11-14T12:41:36.829Z,21.94
2022-11-14T12:42:24.985Z,21.93
2022-11-14T12:43:13.846Z,21.95
2022-11-14T12:44:02.266Z,21.94
2022-11-14T12:44:54.004Z,21.94
2022-11-14T12:45:46.846Z,21.93
2022-11-14T12:46:36.300Z,21.92
2022-11-14T12:47:24.474Z,21.95
2022-11-14T12:48:25.310Z,21.96
2022-11-14T12:49:14.846Z,21.97
2022-11-14T12:50:08.448Z,21.96
2022-11-14T12:51:01.640Z,21.96
2022-11-14T12:51:50.109Z,21.96
2022-11-14T12:52:51.833Z,21.96
2022-11-14T12:53:35.508Z,21.95
2022-11-14T12:54:45.583Z,21.96
2022-11-14T12:55:41.089Z,21.96
2022-11-14T12:56:33.219Z,21.94
2022-11-14T12:57:24.617Z,21.95
2022-11-14T12:58:14.387Z,21.93
2022-11-14T12:58:56.306Z,21.94
2022-11-14T12:59:56.800Z,21.94
2022-11-14T13:00:52.946Z,21.93
2022-11-14T13:01:34.836Z,21.94
2022-11-14T13:02:38.035Z,21.93
2022-11-14T13:03:35.222Z,21.93
2022-11-14T13:04:35.777Z,21.92
2022-11-14T13:05:30.221Z,21.91
2022-11-14T13:06:29.799Z,21.92
2022-11-14T13:07:22.033Z,21.92
2022-11-14T13:08:09.035Z,21.94
2022-11-14T13:08:52.735Z,21.93
2022-11-14T13:09:41.856Z,21.93
2022-11-14T13:10:53.662Z,21.96
2022-11-14T13:11:51.327Z,21.93
2022-11-14T13:12:46.353Z,21.95
2022-11-14T13:13:38.714Z,21.96
2022-11-14T13:14:30.020Z,21.94
2022-11-14T13:15:37.448Z,21.97
2022-11-14T13:16:40.652Z,21.97
2022-11-14T13:17:22.208Z,21.97
2022-11-14T13:18:16.884Z,21.96
2022-11-14T13:18:59.064Z,21.97
2022-11-14T13:20:00.051Z,21.97
2022-11-14T13:20:53.185Z,21.96
2022-11-14T13:21:45.991Z,21.97
2022-11-14T13:22:47.529Z,21.97
2022-11-14T13:23:29.678Z,21.97
2022-11-14T13:24:19.789Z,21.96
2022-11-14T13:25:04.781Z,21.96
2022-11-14T13:25:55.103Z,21.95
2022-11-14T13:26:35.574Z,21.93
2022-11-14T13:28:05.848Z,21.94
2022-11-14T13:28:42.435Z,21.94
2022-11-14T13:29:39.566Z,21.96
2022-11-14T13:30:41.894Z,21.97
2022-11-14T13:31:33.367Z,21.96
2022-11-14T13:32:29.553Z,21.97
2022-11-14T13:33:18.270Z,21.96
2022-11-14T13:34:07.432Z,21.97
2022-11-14T13:34:56.072Z,21.98
2022-11-14T13:35:47.358Z,21.96
2022-11-14T13:36:50.793Z,21.97
2022-11-14T13:37:35.261Z,21.97
2022-11-14T13:38:19.271Z,21.96
2022-11-14T13:39:20.320Z,21.97
2022-11-14T13:40:10.633Z,21.95
2022-11-14T13:41:06.139Z,21.95
2022-11-14T13:42:19.967Z,21.98
2022-11-14T13:43:03.095Z,21.98
2022-11-14T13:44:13.196Z,21.98
2022-11-14T13:45:09.720Z,21.94
2022-11-14T13:46:12.909Z,21.97
2022-11-14T13:47:07.058Z,21.98
2022-11-14T13:48:09.284Z,21.99
2022-11-14T13:48:53.410Z,21.98
2022-11-14T13:49:53.723Z,21.98
2022-11-14T13:50:44.890Z,21.97
2022-11-14T13:51:45.403Z,21.98
2022-11-14T13:52:33.041Z,21.98
2022-11-14T13:53:22.859Z,21.98
2022-11-14T13:54:17.135Z,21.97
2022-11-14T13:55:06.964Z,21.97
2022-11-14T13:56:00.558Z,21.98
2022-11-14T13:57:04.227Z,21.98
2022-11-14T13:58:05.106Z,21.98
2022-11-14T13:59:09.203Z,21.96
2022-11-14T13:59:52.035Z,21.97
2022-11-14T14:00:41.530Z,21.97
2022-11-14T14:01:34.330Z,21.96
2022-11-14T14:02:34.682Z,21.98
2022-11-14T14:03:35.380Z,21.95
2022-11-14T14:04:26.217Z,21.95
2022-11-14T14:05:17.876Z,21.95
2022-11-14T14:06:05.094Z,21.92
2022-11-14T14:07:07.301Z,21.92
2022-11-14T14:08:14.506Z,21.95
2022-11-14T14:09:18.130Z,21.97
2022-11-14T14:10:22.051Z,21.95
2022-11-14T14:12:06.383Z,21.96
2022-11-14T14:13:05.253Z,21.95
2022-11-14T14:14:08.817Z,21.96
2022-11-14T14:15:00.560Z,21.96
2022-11-14T14:16:13.650Z,21.96
2022-11-14T14:17:02.656Z,21.97
2022-11-14T14:17:44.632Z,21.97
2022-11-14T14:18:26.583Z,21.97
2022-11-14T14:19:10.624Z,21.97
2022-11-14T14:20:14.312Z,21.97
2022-11-14T14:21:06.585Z,21.97
2022-11-14T14:21:51.424Z,21.99
2022-11-14T14:22:41.759Z,21.97
2022-11-14T14:23:45.368Z,21.98
2022-11-14T14:24:29.498Z,21.99
2022-11-14T14:25:28.835Z,21.98
2022-11-14T14:26:21.944Z,21.98
2022-11-14T14:27:23.762Z,21.97
2022-11-14T14:28:14.702Z,21.97
2022-11-14T14:29:28.423Z,21.98
2022-11-14T14:30:12.960Z,21.99
2022-11-14T14:31:57.110Z,21.98
2022-11-14T14:32:49.358Z,21.98
2022-11-14T14:33:42.419Z,21.94
2022-11-14T14:34:47.141Z,21.96
2022-11-14T14:35:40.600Z,21.98
2022-11-14T14:36:23.462Z,21.96
2022-11-14T14:37:15.167Z,21.97
2022-11-14T14:38:06.419Z,21.98
2022-11-14T14:38:58.205Z,21.98
2022-11-14T14:39:50.102Z,21.99
2022-11-14T14:40:39.416Z,21.98
2022-11-14T14:41:33.128Z,21.99
2022-11-14T14:42:22.375Z,22.00
2022-11-14T14:43:12.194Z,21.99
2022-11-14T14:44:02.193Z,21.99
2022-11-14T14:44:55.023Z,21.99
2022-11-14T14:45:52.970Z,21.98
2022-11-14T14:46:43.502Z,21.98
2022-11-14T14:47:43.141Z,21.98
2022-11-14T14:48:35.415Z,21.99
2022-11-14T14:49:29.952Z,21.99
2022-11-14T14:50:19.517Z,21.96
2022-11-14T14:51:19.396Z,21.97
2022-11-14T14:52:11.084Z,21.99
2022-11-14T14:53:03.832Z,21.97
2022-11-14T14:53:59.373Z,21.98
2022-11-14T14:54:50.969Z,21.96
2022-11-14T14:55:45.433Z,21.98
2022-11-14T14:56:37.276Z,21.97
2022-11-14T14:57:29.579Z,21.97
2022-11-14T14:58:28.106Z,21.98
2022-11-14T14:59:30.179Z,21.99
2022-11-14T15:00:19.440Z,21.98
2022-11-14T15:01:14.709Z,22.00
2022-11-14T15:02:09.181Z,21.99
2022-11-14T15:02:57.705Z,21.99
2022-11-14T15:03:50.800Z,21.98
2022-11-14T15:04:39.858Z,21.99
2022-11-14T15:05:31.046Z,21.98
2022-11-14T15:06:26.598Z,21.97
2022-11-14T15:07:21.964Z,21.99
2022-11-14T15:08:11.538Z,21.99
2022-11-14T15:09:00.506Z,21.99
2022-11-14T15:09:48.806Z,21.96
2022-11-14T15:10:37.643Z,21.96
2022-11-14T15:11:32.421Z,21.96
2022-11-14T15:12:25.792Z,21.98
2022-11-14T15:13:15.439Z,21.98
2022-11-14T15:14:05.238Z,21.98
2022-11-14T15:14:58.656Z,21.98
2022-11-14T15:16:05.180Z,21.97
2022-11-14T15:16:56.068Z,21.97
2022-11-14T15:17:47.536Z,21.97
2022-11-14T15:18:41.729Z,21.99
2022-11-14T15:19:33.324Z,21.97
2022-11-14T15:20:34.697Z,21.98
2022-11-14T15:21:35.894Z,21.98
2022-11-14T15:22:20.800Z,21.96
2022-11-14T15:23:07.575Z,21.99
2022-11-14T15:23:58.044Z,21.99
2022-11-14T15:24:49.782Z,21.99
2022-11-14T15:25:41.773Z,21.99
2022-11-14T15:26:38.472Z,21.98
2022-11-14T15:27:27.955Z,21.98
2022-11-14T15:28:19.735Z,21.99
2022-11-14T15:29:34.267Z,21.99
2022-11-14T15:30:33.301Z,21.99
2022-11-14T15:31:37.143Z,21.99
2022-11-14T15:32:35.927Z,21.96
2022-11-14T15:33:40.321Z,21.96
2022-11-14T15:34:44.072Z,21.98
2022-11-14T15:35:41.467Z,21.98
2022-11-14T15:36:30.243Z,21.98
2022-11-14T15:37:23.367Z,21.98
2022-11-14T15:38:28.906Z,21.97
2022-11-14T15:39:03.834Z,21.97
2022-11-14T15:39:52.873Z,21.93
2022-11-14T15:40:42.878Z,21.97
2022-11-14T15:41:34.472Z,21.98
2022-11-14T15:42:19.202Z,21.97
2022-11-14T15:43:08.443Z,21.98
2022-11-14T15:43:48.882Z,21.98
2022-11-14T15:44:44.427Z,21.99
2022-11-14T15:45:37.949Z,21.97
2022-11-14T15:46:45.528Z,21.97
2022-11-14T15:47:41.076Z,21.99
2022-11-14T15:48:30.572Z,21.98
2022-11-14T15:49:25.759Z,21.99
2022-11-14T15:50:14.717Z,21.98
2022-11-14T15:51:04.118Z,21.98
2022-11-14T15:51:56.086Z,21.97
2022-11-14T15:52:45.192Z,21.97
2022-11-14T15:53:34.333Z,21.95
2022-11-14T15:54:32.081Z,21.97
2022-11-14T15:55:22.795Z,21.98
2022-11-14T15:56:10.664Z,21.97
2022-11-14T15:57:02.739Z,21.98
2022-11-14T15:58:21.038Z,21.99
2022-11-14T15:58:55.219Z,22.00
2022-11-14T15:59:43.285Z,21.99
2022-11-14T16:00:36.246Z,22.00
2022-11-14T16:01:26.964Z,21.98
2022-11-14T16:02:24.265Z,21.97
2022-11-14T16:03:15.371Z,21.96
2022-11-14T16:04:03.191Z,21.98
2022-11-14T16:04:53.727Z,21.97
2022-11-14T16:05:45.120Z,21.98
2022-11-14T16:06:39.743Z,21.96
2022-11-14T16:07:28.851Z,21.98
2022-11-14T16:08:17.335Z,21.99
2022-11-14T16:09:09.900Z,21.96
2022-11-14T16:10:00.427Z,21.97
2022-11-14T16:10:52.205Z,21.97
2022-11-14T16:11:49.128Z,21.95
2022-11-14T16:12:39.749Z,21.97
2022-11-14T16:13:31.691Z,21.98
2022-11-14T16:14:24.509Z,21.99
2022-11-14T16:15:14.484Z,21.97
2022-11-14T16:16:06.942Z,21.94
2022-11-14T16:18:03.485Z,21.97
2022-11-14T16:18:53.365Z,21.96
2022-11-14T16:19:43.405Z,21.95
2022-11-14T16:20:39.340Z,21.97
2022-11-14T16:21:26.896Z,21.95
2022-11-14T16:22:20.441Z,21.97
2022-11-14T16:23:09.746Z,21.94
2022-11-14T16:23:57.624Z,21.96
2022-11-14T16:24:45.438Z,21.97
2022-11-14T16:25:33.576Z,21.99
2022-11-14T16:26:21.327Z,21.97
2022-11-14T16:27:13.042Z,21.98
2022-11-14T16:28:04.513Z,21.98
2022-11-14T16:28:52.360Z,21.97
2022-11-14T16:29:42.233Z,21.97
2022-11-14T16:30:29.644Z,21.99
2022-11-14T16:31:21.299Z,21.97
2022-11-14T16:32:09.781Z,21.99
2022-11-14T16:33:03.811Z,21.97
2022-11-14T16:33:53.367Z,21.98
2022-11-14T16:34:41.652Z,21.97
2022-11-14T16:35:31.052Z,21.98
2022-11-14T16:36:19.935Z,21.99
2022-11-14T16:37:02.692Z,21.98
2022-11-14T16:37:39.103Z,21.99
2022-11-14T16:38:16.931Z,21.99
2022-11-14T16:38:53.587Z,22.00
2022-11-14T16:39:30.151Z,21.99
2022-11-14T16:40:06.574Z,21.98
2022-11-14T16:40:44.421Z,21.98
2022-11-14T16:41:22.683Z,21.97
2022-11-14T16:42:04.697Z,21.97
2022-11-14T16:42:41.167Z,21.97
2022-11-14T16:43:18.366Z,21.98
2022-11-14T16:43:59.504Z,21.98
2022-11-14T16:44:41.832Z,21.98
2022-11-14T16:45:19.939Z,21.98
2022-11-14T16:45:57.853Z,22.00
2022-11-14T16:46:35.317Z,22.00
2022-11-14T16:47:12.271Z,21.99
2022-11-14T16:47:50.530Z,22.00
2022-11-14T16:48:28.496Z,21.99
2022-11-14T16:49:06.105Z,21.98
2022-11-14T16:49:44.980Z,21.99
2022-11-14T16:50:21.359Z,21.99
2022-11-14T16:50:58.968Z,21.98
2022-11-14T16:51:51.941Z,21.98
2022-11-14T16:52:29.816Z,21.99
2022-11-14T16:53:07.848Z,21.99
2022-11-14T16:53:46.522Z,21.98
2022-11-14T16:54:24.879Z,21.99
2022-11-14T16:55:02.731Z,22.00
2022-11-14T16:55:40.680Z,21.97
2022-11-14T16:56:18.402Z,21.97
2022-11-14T16:56:56.992Z,21.97
2022-11-14T16:57:34.946Z,21.99
2022-11-14T16:58:13.030Z,21.98
2022-11-14T16:58:51.132Z,21.97
2022-11-14T16:59:29.253Z,21.98
2022-11-14T17:00:09.318Z,21.98
2022-11-14T17:00:46.206Z,21.97
2022-11-14T17:01:22.998Z,21.98
2022-11-14T17:01:59.631Z,21.97
2022-11-14T17:02:36.377Z,21.97
2022-11-14T17:03:13.258Z,21.88
2022-11-14T17:03:50.046Z,21.72
2022-11-14T17:04:27.274Z,21.80
2022-11-14T17:05:03.962Z,21.82
2022-11-14T17:05:46.492Z,21.85
2022-11-14T17:06:24.130Z,21.84
2022-11-14T17:07:01.603Z,21.83
2022-11-14T17:07:39.016Z,21.84
2022-11-14T17:08:15.388Z,21.84
2022-11-14T17:08:52.129Z,21.85
2022-11-14T17:09:29.154Z,21.85
2022-11-14T17:10:05.964Z,21.85
2022-11-14T17:10:42.731Z,21.84
2022-11-14T17:11:19.614Z,21.85
2022-11-14T17:11:56.339Z,21.84
2022-11-14T17:12:33.717Z,21.85
2022-11-14T17:13:10.733Z,21.83
2022-11-14T17:13:47.528Z,21.83
2022-11-14T17:14:24.257Z,21.83
2022-11-14T17:15:03.018Z,21.82
2022-11-14T17:15:39.545Z,21.82
2022-11-14T17:16:16.297Z,21.83
2022-11-14T17:16:52.902Z,21.83
2022-11-14T17:17:30.117Z,21.82
2022-11-14T17:18:07.749Z,21.81
2022-11-14T17:18:44.347Z,21.83
2022-11-14T17:19:21.259Z,21.82
2022-11-14T17:19:57.874Z,21.83
2022-11-14T17:20:34.175Z,21.83
2022-11-14T17:21:10.889Z,21.83
2022-11-14T17:21:47.753Z,21.82
2022-11-14T17:22:25.082Z,21.84
2022-11-14T17:23:01.430Z,21.83
2022-11-14T17:23:38.018Z,21.82
2022-11-14T17:24:14.637Z,21.82
2022-11-14T17:24:50.846Z,21.84
2022-11-14T17:25:27.454Z,21.83
2022-11-14T17:26:10.466Z,21.82
2022-11-14T17:26:48.444Z,21.83
2022-11-14T17:27:26.341Z,21.84
2022-11-14T17:28:04.550Z,21.84
2022-11-14T17:28:41.408Z,21.83
2022-11-14T17:29:20.251Z,21.81
2022-11-14T17:29:58.253Z,21.79
2022-11-14T17:30:37.097Z,21.80
2022-11-14T17:31:14.879Z,21.81
2022-11-14T17:31:53.819Z,21.83
2022-11-14T17:32:31.656Z,21.83
2022-11-14T17:33:09.914Z,21.82
2022-11-14T17:33:48.555Z,21.80
2022-11-14T17:34:26.513Z,21.82
2022-11-14T17:35:05.310Z,21.83
2022-11-14T17:35:43.161Z,21.81
2022-11-14T17:36:21.234Z,21.83
2022-11-14T17:37:00.729Z,21.81
2022-11-14T17:37:41.140Z,21.79
2022-11-14T17:38:19.400Z,21.80
2022-11-14T17:38:57.271Z,21.79
2022-11-14T17:39:35.506Z,21.80
2022-11-14T17:40:15.515Z,21.79
2022-11-14T17:40:53.403Z,21.79
2022-11-14T17:41:30.081Z,21.79
2022-11-14T17:42:06.726Z,21.79
2022-11-14T17:42:43.992Z,21.76
2022-11-14T17:43:21.263Z,21.76
2022-11-14T17:43:57.978Z,21.76
2022-11-14T17:44:34.746Z,21.76
2022-11-14T17:45:11.388Z,21.76
2022-11-14T17:45:55.579Z,21.77
2022-11-14T17:46:32.150Z,21.75
2022-11-14T17:47:08.671Z,21.75
2022-11-14T17:47:45.820Z,21.75
2022-11-14T17:48:23.567Z,21.76
2022-11-14T17:49:00.116Z,21.75
2022-11-14T17:49:36.825Z,21.74
2022-11-14T17:50:14.072Z,21.75
2022-11-14T17:50:50.811Z,21.73
2022-11-14T17:51:26.987Z,21.73
2022-11-14T17:52:03.628Z,21.74
2022-11-14T17:52:40.417Z,21.76
2022-11-14T17:53:17.699Z,21.75
2022-11-14T17:53:54.408Z,21.74
2022-11-14T17:54:32.326Z,21.75
2022-11-14T17:55:08.841Z,21.73
2022-11-14T17:55:45.556Z,21.73
2022-11-14T17:56:22.501Z,21.72
2022-11-14T17:56:59.768Z,21.70
2022-11-14T17:57:36.171Z,21.73
2022-11-14T17:58:13.100Z,21.70
2022-11-14T17:58:50.845Z,21.69
2022-11-14T17:59:27.309Z,21.71
2022-11-14T18:00:05.437Z,21.70
2022-11-14T18:00:41.846Z,21.70
2022-11-14T18:01:18.649Z,21.70
2022-11-14T18:01:55.340Z,21.73
2022-11-14T18:02:31.975Z,21.71
2022-11-14T18:03:08.632Z,21.72
2022-11-14T18:03:46.644Z,21.72
2022-11-14T18:04:24.066Z,21.70
2022-11-14T18:05:00.735Z,21.70
2022-11-14T18:05:37.481Z,21.70
2022-11-14T18:06:14.731Z,21.71
2022-11-14T18:06:53.084Z,21.71
2022-11-14T18:07:31.378Z,21.69
2022-11-14T18:08:09.628Z,21.68
2022-11-14T18:08:47.548Z,21.67
2022-11-14T18:09:26.017Z,21.69
2022-11-14T18:10:04.994Z,21.69
2022-11-14T18:10:42.819Z,21.69
2022-11-14T18:11:19.462Z,21.69
2022-11-14T18:11:57.541Z,21.67
2022-11-14T18:12:35.462Z,21.67
2022-11-14T18:13:14.443Z,21.69
2022-11-14T18:13:53.439Z,21.68
2022-11-14T18:14:31.408Z,21.70
2022-11-14T18:15:08.222Z,21.70
2022-11-14T18:15:45.034Z,21.70
2022-11-14T18:16:22.085Z,21.71
2022-11-14T18:17:12.498Z,21.72
2022-11-14T18:17:49.150Z,21.68
2022-11-14T18:18:25.916Z,21.71
2022-11-14T18:19:03.391Z,21.70
2022-11-14T18:19:40.137Z,21.70
2022-11-14T18:20:16.885Z,21.71
2022-11-14T18:20:54.511Z,21.73
2022-11-14T18:21:31.283Z,21.72
2022-11-14T18:22:07.976Z,21.73
2022-11-14T18:22:44.774Z,21.72
2022-11-14T18:23:22.124Z,21.72
2022-11-14T18:23:59.364Z,21.72
2022-11-14T18:24:38.061Z,21.71
2022-11-14T18:25:15.114Z,21.72
2022-11-14T18:25:53.138Z,21.70
2022-11-14T18:26:29.679Z,21.70
2022-11-14T18:27:07.871Z,21.70
2022-11-14T18:27:46.646Z,21.68
2022-11-14T18:28:24.288Z,21.67
2022-11-14T18:29:00.976Z,21.67
2022-11-14T18:29:39.045Z,21.66
2022-11-14T18:30:39.772Z,21.68
2022-11-14T18:31:12.538Z,21.69
2022-11-14T18:31:51.465Z,21.67
2022-11-14T18:32:29.248Z,21.68
2022-11-14T18:33:07.913Z,21.66
2022-11-14T18:33:45.322Z,21.67
2022-11-14T18:34:23.617Z,21.69
2022-11-14T18:35:02.438Z,21.68
2022-11-14T18:35:40.489Z,21.67
2022-11-14T18:36:18.641Z,21.65
2022-11-14T18:36:56.437Z,21.66
2022-11-14T18:37:34.095Z,21.65
2022-11-14T18:38:11.199Z,21.67
2022-11-14T18:38:49.030Z,21.66
2022-11-14T18:39:27.470Z,21.64
2022-11-14T18:40:05.698Z,21.64
2022-11-14T18:40:42.201Z,21.64
2022-11-14T18:41:20.709Z,21.64
2022-11-14T18:41:59.571Z,21.66
2022-11-14T18:42:37.602Z,21.66
2022-11-14T18:43:15.736Z,21.67
2022-11-14T18:43:53.999Z,21.64
2022-11-14T18:44:31.875Z,21.64
2022-11-14T18:45:09.601Z,21.65
2022-11-14T18:45:46.075Z,21.65
2022-11-14T18:46:22.963Z,21.65
2022-11-14T18:47:01.079Z,21.63
2022-11-14T18:47:39.197Z,21.64
2022-11-14T18:48:17.897Z,21.62
2022-11-14T18:48:57.935Z,21.63
2022-11-14T18:49:34.671Z,21.62
2022-11-14T18:50:11.732Z,21.62
2022-11-14T18:50:50.002Z,21.62
2022-11-14T18:51:27.483Z,21.61
2022-11-14T18:52:11.377Z,21.61
2022-11-14T18:52:52.969Z,21.63
2022-11-14T18:53:33.537Z,21.59
2022-11-14T18:54:10.826Z,21.60
2022-11-14T18:54:48.722Z,21.57
2022-11-14T18:55:30.229Z,21.60
2022-11-14T18:56:07.458Z,21.62
2022-11-14T18:56:45.574Z,21.58
2022-11-14T18:57:23.828Z,21.59
2022-11-14T18:58:01.546Z,21.60
2022-11-14T18:58:39.623Z,21.59
2022-11-14T18:59:18.782Z,21.61
2022-11-14T18:59:56.879Z,21.58
2022-11-14T19:00:34.713Z,21.61
2022-11-14T19:01:17.116Z,21.61
2022-11-14T19:01:54.041Z,21.61
2022-11-14T19:02:30.739Z,21.62
2022-11-14T19:03:07.225Z,21.60
2022-11-14T19:03:43.964Z,21.58
2022-11-14T19:04:21.134Z,21.58
2022-11-14T19:04:57.753Z,21.59
2022-11-14T19:05:34.622Z,21.60
2022-11-14T19:06:11.235Z,21.58
2022-11-14T19:06:49.151Z,21.58
2022-11-14T19:07:26.939Z,21.57
2022-11-14T19:08:05.007Z,21.58
2022-11-14T19:08:43.012Z,21.58
2022-11-14T19:09:19.893Z,21.58
2022-11-14T19:09:56.649Z,21.58
2022-11-14T19:10:33.263Z,21.57
2022-11-14T19:11:09.946Z,21.57
2022-11-14T19:11:46.542Z,21.56
2022-11-14T19:12:23.568Z,21.54
2022-11-14T19:13:00.237Z,21.53
2022-11-14T19:13:37.336Z,21.53
2022-11-14T19:14:15.272Z,21.54
2022-11-14T19:14:53.083Z,21.55
2022-11-14T19:15:29.895Z,21.53
2022-11-14T19:16:07.137Z,21.51
2022-11-14T19:16:43.812Z,21.54
2022-11-14T19:17:20.877Z,21.52
2022-11-14T19:17:57.362Z,21.51
2022-11-14T19:18:34.128Z,21.51
2022-11-14T19:19:11.964Z,21.52
2022-11-14T19:19:48.918Z,21.51
2022-11-14T19:20:25.462Z,21.51
2022-11-14T19:21:02.164Z,21.52
2022-11-14T19:21:38.864Z,21.53
2022-11-14T19:22:15.693Z,21.53
2022-11-14T19:22:52.768Z,21.54
2022-11-14T19:23:29.644Z,21.54
2022-11-14T19:24:06.275Z,21.54
2022-11-14T19:24:43.603Z,21.52
2022-11-14T19:25:20.536Z,21.52
2022-11-14T19:26:02.481Z,21.52
2022-11-14T19:26:39.149Z,21.52
2022-11-14T19:27:17.300Z,21.51
2022-11-14T19:27:53.518Z,21.49
2022-11-14T19:28:30.103Z,21.50
2022-11-14T19:29:06.712Z,21.52
2022-11-14T19:29:44.338Z,21.51
2022-11-14T19:30:22.371Z,21.51
2022-11-14T19:31:09.756Z,21.51
2022-11-14T19:31:47.567Z,21.49
2022-11-14T19:32:25.178Z,21.47
2022-11-14T19:33:04.039Z,21.48
2022-11-14T19:33:44.783Z,21.49
2022-11-14T19:34:22.741Z,21.46
2022-11-14T19:35:00.540Z,21.46
2022-11-14T19:35:40.182Z,21.49